createdAt,value
2019-03-04T00:01:07.473Z,29.33
2019-03-04T00:03:37.435Z,25.47
2019-03-04T00:06:06.793Z,27.70
2019-03-04T00:08:36.973Z,28.00
2019-03-04T00:11:06.643Z,33.23
2019-03-04T00:13:36.743Z,31.27
2019-03-04T00:16:06.140Z,27.73
2019-03-04T00:18:35.727Z,25.83
2019-03-04T00:21:05.835Z,27.07
2019-03-04T00:23:35.388Z,25.20
2019-03-04T00:26:04.721Z,30.43
2019-03-04T00:28:34.366Z,28.50
2019-03-04T00:31:04.153Z,28.30
2019-03-04T00:33:33.595Z,27.23
2019-03-04T00:36:03.148Z,26.73
2019-03-04T00:38:32.899Z,25.17
2019-03-04T00:41:02.766Z,27.23
2019-03-04T00:43:32.944Z,29.37
2019-03-04T00:46:02.418Z,29.20
2019-03-04T00:48:32.126Z,28.80
2019-03-04T00:51:01.769Z,24.80
2019-03-04T00:53:31.491Z,29.32
2019-03-04T00:56:01.057Z,25.87
2019-03-04T00:58:30.970Z,30.37
2019-03-04T01:01:00.227Z,27.87
2019-03-04T01:03:30.041Z,28.70
2019-03-04T01:05:59.659Z,29.83
2019-03-04T01:08:29.443Z,33.43
2019-03-04T01:10:59.069Z,30.13
2019-03-04T01:13:29.335Z,29.63
2019-03-04T01:15:59.276Z,31.33
2019-03-04T01:18:28.598Z,31.63
2019-03-04T01:20:58.217Z,31.67
2019-03-04T01:23:27.762Z,32.50
2019-03-04T01:25:57.468Z,32.77
2019-03-04T01:28:27.093Z,32.83
2019-03-04T01:30:56.914Z,36.33
2019-03-04T01:33:26.643Z,29.87
2019-03-04T01:35:56.379Z,29.10
2019-03-04T01:38:26.275Z,30.57
2019-03-04T01:40:56.268Z,29.90
2019-03-04T01:43:26.145Z,29.93
2019-03-04T01:45:56.122Z,36.77
2019-03-04T01:48:26.062Z,32.60
2019-03-04T01:50:55.971Z,33.63
2019-03-04T01:53:25.844Z,30.83
2019-03-04T01:55:55.899Z,34.97
2019-03-04T01:58:25.489Z,37.27
2019-03-04T02:00:55.350Z,34.77
2019-03-04T02:03:25.673Z,39.83
2019-03-04T02:05:55.534Z,45.50
2019-03-04T02:08:25.274Z,35.43
2019-03-04T02:10:55.061Z,35.37
2019-03-04T02:13:24.995Z,36.00
2019-03-04T02:15:55.117Z,36.30
2019-03-04T02:18:24.964Z,34.27
2019-03-04T02:20:55.839Z,34.20
2019-03-04T02:23:27.057Z,32.50
2019-03-04T02:26:10.452Z,35.53
2019-03-04T02:28:40.479Z,34.03
2019-03-04T02:31:10.543Z,31.70
2019-03-04T02:33:40.549Z,36.93
2019-03-04T02:36:09.804Z,33.37
2019-03-04T02:38:39.592Z,33.50
2019-03-04T02:41:09.394Z,32.80
2019-03-04T02:43:39.330Z,33.03
2019-03-04T02:46:10.827Z,31.40
2019-03-04T02:48:40.796Z,35.47
2019-03-04T02:51:10.633Z,34.43
2019-03-04T02:53:40.396Z,33.63
2019-03-04T02:56:10.397Z,32.33
2019-03-04T02:58:40.421Z,31.27
2019-03-04T03:01:12.556Z,33.80
2019-03-04T03:03:42.718Z,31.83
2019-03-04T03:06:12.830Z,36.50
2019-03-04T03:08:42.902Z,33.33
2019-03-04T03:11:12.540Z,33.40
2019-03-04T03:13:42.971Z,32.10
2019-03-04T03:16:13.317Z,30.70
2019-03-04T03:18:43.783Z,31.77
2019-03-04T03:21:15.063Z,31.30
2019-03-04T03:23:44.795Z,31.87
2019-03-04T03:26:15.356Z,32.27
2019-03-04T03:28:45.153Z,32.20
2019-03-04T03:31:15.273Z,31.83
2019-03-04T03:33:44.845Z,29.23
2019-03-04T03:36:14.746Z,30.20
2019-03-04T03:38:44.530Z,29.27
2019-03-04T03:41:14.967Z,28.50
2019-03-04T03:43:44.502Z,29.73
2019-03-04T03:46:14.445Z,31.20
2019-03-04T03:48:43.899Z,31.00
2019-03-04T03:51:14.023Z,30.53
2019-03-04T03:53:44.197Z,29.43
2019-03-04T03:56:13.614Z,29.83
2019-03-04T03:58:43.435Z,31.33
2019-03-04T04:01:13.532Z,33.20
2019-03-04T04:03:42.926Z,33.70
2019-03-04T04:06:12.512Z,30.67
2019-03-04T04:08:42.341Z,30.70
2019-03-04T04:11:12.725Z,29.97
2019-03-04T04:13:42.873Z,29.90
2019-03-04T04:16:12.761Z,31.90
2019-03-04T04:18:42.882Z,33.53
2019-03-04T04:21:12.512Z,32.17
2019-03-04T04:23:43.139Z,31.07
2019-03-04T04:26:22.560Z,28.93
2019-03-04T04:29:17.805Z,29.50
2019-03-04T04:31:50.719Z,31.20
2019-03-04T04:34:20.673Z,28.70
2019-03-04T04:36:50.968Z,32.67
2019-03-04T04:39:20.352Z,34.23
2019-03-04T04:41:49.958Z,31.33
2019-03-04T04:44:19.533Z,31.97
2019-03-04T04:46:50.491Z,33.00
2019-03-04T04:49:20.571Z,32.80
2019-03-04T04:51:50.025Z,35.27
2019-03-04T04:54:19.810Z,31.73
2019-03-04T04:56:49.667Z,82.07
2019-03-04T04:59:19.495Z,64.70
2019-03-04T05:01:48.763Z,34.60
2019-03-04T05:04:18.408Z,37.33
2019-03-04T05:06:47.642Z,32.87
2019-03-04T05:09:16.916Z,35.17
2019-03-04T05:11:46.114Z,43.40
2019-03-04T05:14:15.300Z,32.97
2019-03-04T05:16:45.740Z,34.87
2019-03-04T05:19:16.119Z,31.10
2019-03-04T05:21:46.296Z,35.33
2019-03-04T05:24:16.518Z,34.63
2019-03-04T05:26:46.920Z,78.30
2019-03-04T05:29:17.623Z,37.37
2019-03-04T05:31:48.578Z,42.50
2019-03-04T05:34:19.362Z,28.20
2019-03-04T05:36:49.469Z,31.83
2019-03-04T05:39:19.893Z,31.77
2019-03-04T05:41:50.264Z,37.27
2019-03-04T05:44:20.724Z,59.37
2019-03-04T05:46:49.898Z,36.00
2019-03-04T05:49:19.061Z,38.77
2019-03-04T05:51:48.361Z,38.73
2019-03-04T05:54:18.016Z,32.30
2019-03-04T05:56:47.274Z,34.03
2019-03-04T05:59:19.658Z,34.10
2019-03-04T06:02:07.333Z,34.63
2019-03-04T06:04:36.769Z,39.20
2019-03-04T06:07:24.994Z,35.77
2019-03-04T06:09:54.730Z,34.27
2019-03-04T06:12:24.096Z,37.97
2019-03-04T06:14:53.325Z,39.93
2019-03-04T06:17:22.591Z,38.23
2019-03-04T06:19:51.862Z,39.60
2019-03-04T06:22:23.745Z,37.13
2019-03-04T06:24:52.898Z,38.53
2019-03-04T06:27:22.041Z,40.43
2019-03-04T06:29:51.257Z,43.37
2019-03-04T06:32:20.519Z,47.83
2019-03-04T06:34:49.795Z,48.57
2019-03-04T06:37:19.514Z,42.13
2019-03-04T06:39:48.812Z,40.40
2019-03-04T06:42:18.173Z,45.53
2019-03-04T06:44:47.347Z,49.23
2019-03-04T06:47:16.520Z,40.20
2019-03-04T06:49:45.732Z,49.17
2019-03-04T06:52:15.212Z,43.20
2019-03-04T06:54:47.797Z,47.13
2019-03-04T06:57:27.905Z,45.53
2019-03-04T07:00:17.955Z,48.53
2019-03-04T07:02:50.079Z,44.87
2019-03-04T07:05:30.362Z,47.93
2019-03-04T07:08:05.530Z,48.13
2019-03-04T07:10:34.778Z,50.10
2019-03-04T07:13:07.405Z,46.87
2019-03-04T07:15:38.512Z,51.90
2019-03-04T07:18:25.939Z,49.77
2019-03-04T07:21:01.485Z,38.93
2019-03-04T07:23:36.807Z,40.97
2019-03-04T07:26:06.370Z,42.33
2019-03-04T07:28:37.487Z,39.10
2019-03-04T07:32:04.214Z,35.57
2019-03-04T07:34:54.235Z,38.10
2019-03-04T07:40:57.902Z,34.10
2019-03-04T07:44:03.185Z,33.53
2019-03-04T08:01:00.129Z,32.87
2019-03-04T08:04:18.048Z,35.93
2019-03-04T08:59:17.895Z,29.67
2019-03-04T09:58:26.805Z,25.07
2019-03-04T10:04:25.003Z,26.37
2019-03-04T10:07:24.272Z,31.00
2019-03-04T10:16:33.652Z,27.60
2019-03-04T10:19:43.729Z,29.60
2019-03-04T10:57:01.157Z,22.90
2019-03-04T11:03:28.668Z,24.50
2019-03-04T11:17:15.677Z,20.90
2019-03-04T11:27:39.110Z,16.87
2019-03-04T11:37:26.799Z,17.37
2019-03-04T12:19:09.135Z,17.10
2019-03-04T12:22:06.584Z,18.43
2019-03-04T12:25:05.910Z,16.73
2019-03-04T12:28:33.139Z,20.90
2019-03-04T12:31:22.799Z,15.97
2019-03-04T12:33:57.918Z,19.20
2019-03-04T12:36:41.267Z,18.07
2019-03-04T12:42:54.640Z,25.47
2019-03-04T12:46:03.099Z,16.80
2019-03-04T12:58:40.427Z,16.73
2019-03-04T13:01:32.102Z,15.63
2019-03-04T13:04:57.025Z,16.53
2019-03-04T13:07:53.835Z,22.20
2019-03-04T13:11:02.231Z,17.53
2019-03-04T13:14:03.939Z,15.23
2019-03-04T13:17:05.602Z,14.93
2019-03-04T13:19:48.453Z,16.23
2019-03-04T13:22:43.136Z,15.20
2019-03-04T13:25:48.771Z,16.73
2019-03-04T13:28:44.468Z,14.50
2019-03-04T13:31:26.457Z,14.40
2019-03-04T13:34:09.313Z,15.17
2019-03-04T13:36:57.272Z,15.57
2019-03-04T13:40:18.789Z,14.53
2019-03-04T13:43:08.222Z,15.33
2019-03-04T13:45:48.492Z,13.90
2019-03-04T13:48:44.897Z,12.27
2019-03-04T13:51:18.923Z,13.10
2019-03-04T13:54:02.512Z,13.43
2019-03-04T13:56:51.290Z,13.53
2019-03-04T13:59:44.765Z,16.47
2019-03-04T14:02:42.153Z,13.57
2019-03-04T14:05:18.856Z,15.43
2019-03-04T14:07:51.680Z,14.20
2019-03-04T14:10:24.464Z,14.93
2019-03-04T14:12:56.347Z,10.90
2019-03-04T14:15:30.828Z,14.03
2019-03-04T14:18:09.270Z,17.97
2019-03-04T14:20:41.166Z,17.40
2019-03-04T14:23:16.277Z,15.60
2019-03-04T14:25:53.657Z,15.87
2019-03-04T14:28:25.373Z,16.00
2019-03-04T14:30:59.322Z,16.43
2019-03-04T14:33:29.092Z,15.00
2019-03-04T14:35:59.678Z,14.73
2019-03-04T14:38:30.376Z,16.97
2019-03-04T14:40:59.738Z,14.53
2019-03-04T14:43:30.371Z,16.57
2019-03-04T14:45:59.796Z,19.97
2019-03-04T14:48:29.160Z,13.87
2019-03-04T14:51:01.855Z,16.20
2019-03-04T14:53:32.118Z,14.27
2019-03-04T14:56:02.065Z,14.83
2019-03-04T14:58:31.720Z,13.63
2019-03-04T15:01:07.965Z,14.77
2019-03-04T15:03:39.673Z,14.37
2019-03-04T15:06:10.365Z,12.90
2019-03-04T15:08:39.679Z,13.47
2019-03-04T15:11:09.661Z,14.03
2019-03-04T15:13:39.986Z,14.60
2019-03-04T15:16:10.406Z,13.33
2019-03-04T15:18:41.707Z,13.03
2019-03-04T15:21:14.191Z,11.60
2019-03-04T15:23:49.294Z,11.23
2019-03-04T15:26:17.640Z,12.70
2019-03-04T15:29:15.445Z,10.27
2019-03-04T15:32:00.764Z,13.83
2019-03-04T15:34:39.024Z,11.73
2019-03-04T15:41:01.011Z,11.70
2019-03-04T16:04:51.861Z,21.40
2019-03-04T17:13:17.976Z,44.87
2019-03-04T17:23:33.090Z,54.23
2019-03-04T17:36:26.347Z,32.50
2019-03-04T17:39:20.956Z,32.97
2019-03-04T17:42:13.360Z,26.47
2019-03-04T17:45:02.654Z,29.30
2019-03-04T17:47:50.632Z,31.33
2019-03-04T17:50:40.834Z,36.60
2019-03-04T17:53:34.534Z,29.57
2019-03-04T17:56:16.653Z,28.37
2019-03-04T17:59:08.067Z,24.00
2019-03-04T18:01:37.976Z,24.83
2019-03-04T18:04:54.562Z,29.03
2019-03-04T18:17:59.481Z,24.60
2019-03-04T18:21:00.938Z,25.73
2019-03-04T18:30:30.978Z,25.53
2019-03-04T18:33:31.411Z,27.23
2019-03-04T18:36:18.278Z,24.37
2019-03-04T18:39:37.958Z,24.43
2019-03-04T18:42:31.910Z,23.33
2019-03-04T18:45:08.923Z,19.20
2019-03-04T18:47:55.779Z,22.53
2019-03-04T18:50:26.477Z,22.37
2019-03-04T18:52:57.591Z,19.83
2019-03-04T18:55:27.077Z,21.20
2019-03-04T18:57:56.400Z,18.20
2019-03-04T19:00:26.129Z,15.77
2019-03-04T19:02:55.819Z,13.77
2019-03-04T19:05:26.283Z,14.90
2019-03-04T19:07:55.789Z,13.53
2019-03-04T19:10:25.163Z,14.03
2019-03-04T19:12:55.240Z,11.73
2019-03-04T19:15:27.991Z,13.80
2019-03-04T19:17:58.395Z,14.33
2019-03-04T19:20:27.770Z,17.87
2019-03-04T19:23:02.209Z,18.93
2019-03-04T19:25:32.891Z,15.03
2019-03-04T19:28:02.589Z,16.10
2019-03-04T19:30:32.265Z,14.47
2019-03-04T19:33:01.537Z,18.80
2019-03-04T19:35:31.771Z,16.40
2019-03-04T19:38:01.521Z,18.70
2019-03-04T19:40:30.713Z,19.23
2019-03-04T19:43:00.882Z,16.70
2019-03-04T19:45:30.497Z,19.00
2019-03-04T19:47:59.735Z,17.23
2019-03-04T19:50:29.158Z,16.30
2019-03-04T19:53:01.317Z,18.70
2019-03-04T19:55:31.042Z,19.93
2019-03-04T19:58:01.140Z,24.03
2019-03-04T20:00:32.971Z,16.87
2019-03-04T20:03:02.387Z,25.83
2019-03-04T20:05:31.972Z,25.73
2019-03-04T20:08:01.687Z,18.93
2019-03-04T20:10:31.974Z,20.17
2019-03-04T20:13:01.737Z,21.97
2019-03-04T20:15:32.398Z,28.63
2019-03-04T20:18:01.851Z,29.73
2019-03-04T20:20:31.251Z,58.30
2019-03-04T20:23:00.786Z,37.50
2019-03-04T20:25:30.215Z,39.47
2019-03-04T20:27:59.744Z,33.50
2019-03-04T20:30:29.424Z,63.03
2019-03-04T20:32:59.981Z,74.77
2019-03-04T20:35:29.314Z,69.03
2019-03-04T20:37:59.074Z,54.13
2019-03-04T20:40:28.600Z,54.97
2019-03-04T20:42:57.876Z,48.33
2019-03-04T20:45:27.087Z,57.07
2019-03-04T20:47:56.716Z,87.20
2019-03-04T20:50:26.300Z,74.97
2019-03-04T20:52:55.831Z,63.07
2019-03-04T20:55:25.249Z,59.13
2019-03-04T20:57:54.628Z,57.67
2019-03-04T21:00:28.629Z,61.13
2019-03-04T21:02:58.373Z,56.37
2019-03-04T21:05:28.933Z,55.17
2019-03-04T21:07:58.607Z,53.83
2019-03-04T21:10:28.006Z,55.03
2019-03-04T21:13:02.562Z,57.90
2019-03-04T21:15:31.879Z,58.40
2019-03-04T21:18:01.385Z,51.60
2019-03-04T21:20:30.786Z,61.00
2019-03-04T21:23:00.212Z,58.23
2019-03-04T21:25:54.206Z,59.10
2019-03-04T21:28:45.203Z,58.90
2019-03-04T21:31:39.311Z,56.43
2019-03-04T21:34:42.684Z,60.37
2019-03-04T21:37:15.561Z,56.77
2019-03-04T21:39:45.015Z,52.93
2019-03-04T21:42:19.736Z,54.30
2019-03-04T21:45:08.067Z,51.90
2019-03-04T21:47:39.722Z,44.27
2019-03-04T21:50:09.780Z,46.60
2019-03-04T21:52:46.653Z,51.23
2019-03-04T21:55:21.630Z,48.67
2019-03-04T21:57:52.559Z,38.47
2019-03-04T22:00:26.014Z,40.37
2019-03-04T22:03:00.310Z,39.37
2019-03-04T22:05:30.698Z,39.73
2019-03-04T22:08:00.085Z,42.80
2019-03-04T22:10:29.308Z,42.23
2019-03-04T22:12:58.763Z,41.53
2019-03-04T22:15:28.068Z,35.60
2019-03-04T22:17:58.576Z,35.43
2019-03-04T22:20:27.772Z,39.77
2019-03-04T22:22:57.088Z,40.40
2019-03-04T22:25:26.457Z,34.73
2019-03-04T22:27:55.699Z,37.30
2019-03-04T22:30:25.080Z,40.03
2019-03-04T22:32:54.353Z,37.10
2019-03-04T22:35:23.719Z,36.47
2019-03-04T22:37:53.600Z,37.07
2019-03-04T22:40:23.224Z,37.50
2019-03-04T22:42:52.500Z,34.43
2019-03-04T22:45:22.197Z,35.80
2019-03-04T22:47:51.623Z,37.80
2019-03-04T22:50:20.808Z,36.90
2019-03-04T22:52:50.218Z,37.53
2019-03-04T22:55:21.545Z,37.43
2019-03-04T22:57:50.677Z,37.07
2019-03-04T23:00:50.653Z,32.33
2019-03-04T23:03:19.837Z,32.90
2019-03-04T23:05:49.084Z,31.13
2019-03-04T23:08:18.337Z,31.63
2019-03-04T23:10:48.792Z,33.50
2019-03-04T23:13:37.000Z,32.60
2019-03-04T23:16:06.818Z,28.63
2019-03-04T23:18:35.999Z,29.43
2019-03-04T23:21:06.522Z,34.40
2019-03-04T23:23:35.961Z,32.77
2019-03-04T23:26:05.117Z,28.53
2019-03-04T23:28:34.323Z,33.33
2019-03-04T23:31:03.576Z,36.27
2019-03-04T23:33:32.813Z,31.67
2019-03-04T23:36:02.054Z,32.27
2019-03-04T23:38:31.295Z,31.10
2019-03-04T23:41:00.633Z,33.43
2019-03-04T23:43:29.892Z,28.93
2019-03-04T23:45:59.076Z,31.03
2019-03-04T23:48:28.231Z,28.40
2019-03-04T23:50:57.435Z,28.30
2019-03-04T23:53:28.051Z,29.77
2019-03-04T23:55:57.259Z,30.20
2019-03-04T23:58:26.464Z,31.83
